createdAt,value
2024-02-29T00:00:21.226Z,45.17
2024-02-29T00:00:55.059Z,45.90
2024-02-29T00:01:27.001Z,44.93
2024-02-29T00:01:59.079Z,45.10
2024-02-29T00:02:30.908Z,44.53
2024-02-29T00:03:03.651Z,43.97
2024-02-29T00:03:35.635Z,46.27
2024-02-29T00:04:07.805Z,44.43
2024-02-29T00:04:39.606Z,46.23
2024-02-29T00:05:13.441Z,44.83
2024-02-29T00:05:45.920Z,45.60
2024-02-29T00:06:17.713Z,47.07
2024-02-29T00:06:49.545Z,45.57
2024-02-29T00:07:22.597Z,45.67
2024-02-29T00:07:54.586Z,48.10
2024-02-29T00:08:28.064Z,48.30
2024-02-29T00:09:00.027Z,47.47
2024-02-29T00:09:32.044Z,45.00
2024-02-29T00:10:04.134Z,45.80
2024-02-29T00:10:36.375Z,46.03
2024-02-29T00:11:08.183Z,46.33
2024-02-29T00:11:40.049Z,45.67
2024-02-29T00:12:11.834Z,46.23
2024-02-29T00:12:43.925Z,47.67
2024-02-29T00:13:15.777Z,45.73
2024-02-29T00:13:47.639Z,45.83
2024-02-29T00:14:20.125Z,47.27
2024-02-29T00:14:52.907Z,47.97
2024-02-29T00:15:24.686Z,47.83
2024-02-29T00:15:56.531Z,47.33
2024-02-29T00:16:28.363Z,46.57
2024-02-29T00:17:02.056Z,45.27
2024-02-29T00:17:34.161Z,43.90
2024-02-29T00:18:06.217Z,44.73
2024-02-29T00:18:38.131Z,43.80
2024-02-29T00:19:10.289Z,44.53
2024-02-29T00:19:42.164Z,44.93
2024-02-29T00:20:13.912Z,45.87
2024-02-29T00:20:45.736Z,46.07
2024-02-29T00:21:17.580Z,44.57
2024-02-29T00:21:49.450Z,44.87
2024-02-29T00:22:21.322Z,44.67
2024-02-29T00:22:53.255Z,43.57
2024-02-29T00:23:25.103Z,42.23
2024-02-29T00:23:56.932Z,43.83
2024-02-29T00:24:28.831Z,42.73
2024-02-29T00:25:00.844Z,42.30
2024-02-29T00:25:32.741Z,42.80
2024-02-29T00:26:04.816Z,44.87
2024-02-29T00:26:36.661Z,44.60
2024-02-29T00:27:08.646Z,43.03
2024-02-29T00:27:40.704Z,43.57
2024-02-29T00:28:12.884Z,43.70
2024-02-29T00:28:44.868Z,42.60
2024-02-29T00:29:16.769Z,43.23
2024-02-29T00:29:48.590Z,43.13
2024-02-29T00:30:20.748Z,42.70
2024-02-29T00:30:52.729Z,42.43
2024-02-29T00:31:25.703Z,41.90
2024-02-29T00:32:01.861Z,42.60
2024-02-29T00:32:35.029Z,42.10
2024-02-29T00:33:07.178Z,42.60
2024-02-29T00:33:40.873Z,43.87
2024-02-29T00:34:13.480Z,43.97
2024-02-29T00:34:45.337Z,42.73
2024-02-29T00:35:17.117Z,42.67
2024-02-29T00:35:49.795Z,44.00
2024-02-29T00:36:24.244Z,44.33
2024-02-29T00:36:56.554Z,43.83
2024-02-29T00:37:29.762Z,42.77
2024-02-29T00:38:01.657Z,43.43
2024-02-29T00:38:33.426Z,43.47
2024-02-29T00:39:11.790Z,42.60
2024-02-29T00:39:46.795Z,43.77
2024-02-29T00:40:18.664Z,45.07
2024-02-29T00:40:50.532Z,44.70
2024-02-29T00:41:22.552Z,43.17
2024-02-29T00:41:54.342Z,42.50
2024-02-29T00:42:26.165Z,43.17
2024-02-29T00:42:58.491Z,43.63
2024-02-29T00:43:30.313Z,42.77
2024-02-29T00:44:02.154Z,43.37
2024-02-29T00:44:34.239Z,44.17
2024-02-29T00:45:06.462Z,43.10
2024-02-29T00:45:38.301Z,42.33
2024-02-29T00:46:10.271Z,43.70
2024-02-29T00:46:42.252Z,43.33
2024-02-29T00:47:14.050Z,45.03
2024-02-29T00:47:45.917Z,46.23
2024-02-29T00:48:17.848Z,44.27
2024-02-29T00:48:49.671Z,45.37
2024-02-29T00:49:21.795Z,44.10
2024-02-29T00:49:53.585Z,45.63
2024-02-29T00:50:25.710Z,45.30
2024-02-29T00:50:57.561Z,43.20
2024-02-29T00:51:29.537Z,43.77
2024-02-29T00:52:01.438Z,43.23
2024-02-29T00:52:33.246Z,42.90
2024-02-29T00:53:05.100Z,44.53
2024-02-29T00:53:36.937Z,44.67
2024-02-29T00:54:09.577Z,44.60
2024-02-29T00:54:41.795Z,45.37
2024-02-29T00:55:14.346Z,44.43
2024-02-29T00:55:46.162Z,45.63
2024-02-29T00:56:18.077Z,45.80
2024-02-29T00:56:49.932Z,46.53
2024-02-29T00:57:21.737Z,44.83
2024-02-29T00:57:53.518Z,45.23
2024-02-29T00:58:25.359Z,45.67
2024-02-29T00:58:57.127Z,42.93
2024-02-29T00:59:28.912Z,44.13
2024-02-29T01:00:00.746Z,45.50
2024-02-29T01:00:32.794Z,46.63
2024-02-29T01:01:04.962Z,46.77
2024-02-29T01:01:36.910Z,45.00
2024-02-29T01:02:08.795Z,45.50
2024-02-29T01:02:40.606Z,45.20
2024-02-29T01:03:12.510Z,46.03
2024-02-29T01:03:44.345Z,45.63
2024-02-29T01:04:16.208Z,44.67
2024-02-29T01:04:48.039Z,45.27
2024-02-29T01:05:19.945Z,45.53
2024-02-29T01:05:52.001Z,48.33
2024-02-29T01:06:23.823Z,47.17
2024-02-29T01:06:57.260Z,46.57
2024-02-29T01:07:29.206Z,46.27
2024-02-29T01:08:01.006Z,46.10
2024-02-29T01:08:32.923Z,47.27
2024-02-29T01:09:05.518Z,47.40
2024-02-29T01:09:37.427Z,47.17
2024-02-29T01:10:12.910Z,46.53
2024-02-29T01:10:44.839Z,45.17
2024-02-29T01:11:18.038Z,46.00
2024-02-29T01:11:49.982Z,46.77
2024-02-29T01:12:21.933Z,46.23
2024-02-29T01:12:53.785Z,46.63
2024-02-29T01:13:25.566Z,46.33
2024-02-29T01:13:57.340Z,47.30
2024-02-29T01:14:29.178Z,46.03
2024-02-29T01:15:01.002Z,48.40
2024-02-29T01:15:32.817Z,45.00
2024-02-29T01:16:04.943Z,44.47
2024-02-29T01:16:36.793Z,45.70
2024-02-29T01:17:08.577Z,46.37
2024-02-29T01:17:44.769Z,46.00
2024-02-29T01:18:16.806Z,45.27
2024-02-29T01:18:48.706Z,47.00
2024-02-29T01:19:20.698Z,48.10
2024-02-29T01:19:52.485Z,47.97
2024-02-29T01:20:24.249Z,46.87
2024-02-29T01:20:56.057Z,46.33
2024-02-29T01:21:27.919Z,47.00
2024-02-29T01:22:00.320Z,48.03
2024-02-29T01:22:32.357Z,46.13
2024-02-29T01:23:04.212Z,47.17
2024-02-29T01:23:35.986Z,47.20
2024-02-29T01:24:07.811Z,46.63
2024-02-29T01:24:39.765Z,45.93
2024-02-29T01:25:12.810Z,45.27
2024-02-29T01:25:44.773Z,46.63
2024-02-29T01:26:16.550Z,45.57
2024-02-29T01:26:48.355Z,47.17
2024-02-29T01:27:20.435Z,45.60
2024-02-29T01:27:52.519Z,46.03
2024-02-29T01:28:24.338Z,45.63
2024-02-29T01:28:57.229Z,45.70
2024-02-29T01:29:29.221Z,46.27
2024-02-29T01:30:01.055Z,45.93
2024-02-29T01:30:32.895Z,47.03
2024-02-29T01:31:05.162Z,45.50
2024-02-29T01:31:37.140Z,44.60
2024-02-29T01:32:18.542Z,45.73
2024-02-29T01:32:54.603Z,44.90
2024-02-29T01:33:26.427Z,45.77
2024-02-29T01:33:58.283Z,45.87
2024-02-29T01:34:30.079Z,45.83
2024-02-29T01:35:04.235Z,45.43
2024-02-29T01:35:36.076Z,47.13
2024-02-29T01:36:07.924Z,47.50
2024-02-29T01:36:39.833Z,45.90
2024-02-29T01:37:11.995Z,47.33
2024-02-29T01:37:43.847Z,47.83
2024-02-29T01:38:15.658Z,47.43
2024-02-29T01:38:47.459Z,46.67
2024-02-29T01:39:19.320Z,47.97
2024-02-29T01:39:51.126Z,47.40
2024-02-29T01:40:23.328Z,47.47
2024-02-29T01:40:55.118Z,47.03
2024-02-29T01:41:27.045Z,46.50
2024-02-29T01:41:58.895Z,47.37
2024-02-29T01:42:30.947Z,47.60
2024-02-29T01:43:03.940Z,47.20
2024-02-29T01:43:36.095Z,46.20
2024-02-29T01:44:07.877Z,45.77
2024-02-29T01:44:53.859Z,45.83
2024-02-29T01:45:25.694Z,48.37
2024-02-29T01:46:15.353Z,48.03
2024-02-29T01:46:47.211Z,45.87
2024-02-29T01:47:18.971Z,46.20
2024-02-29T01:47:50.764Z,47.03
2024-02-29T01:48:22.760Z,45.33
2024-02-29T01:48:55.895Z,45.70
2024-02-29T01:49:28.263Z,44.80
2024-02-29T01:50:05.029Z,46.40
2024-02-29T01:50:38.024Z,47.23
2024-02-29T01:51:13.974Z,46.77
2024-02-29T01:51:46.454Z,46.73
2024-02-29T01:52:19.668Z,47.50
2024-02-29T01:52:51.886Z,46.30
2024-02-29T01:53:23.726Z,46.17
2024-02-29T01:53:55.520Z,45.97
2024-02-29T01:54:27.549Z,46.23
2024-02-29T01:54:59.503Z,47.43
2024-02-29T01:55:31.606Z,46.50
2024-02-29T01:56:03.445Z,46.70
2024-02-29T01:56:35.271Z,45.50
2024-02-29T01:57:08.033Z,45.93
2024-02-29T01:57:41.121Z,45.70
2024-02-29T01:58:14.221Z,45.40
2024-02-29T01:58:46.388Z,45.33
2024-02-29T01:59:18.661Z,46.10
2024-02-29T01:59:51.169Z,46.57
2024-02-29T02:00:22.995Z,45.93
2024-02-29T02:00:55.001Z,46.30
2024-02-29T02:01:27.107Z,46.33
2024-02-29T02:01:59.138Z,45.70
2024-02-29T02:02:31.000Z,45.03
2024-02-29T02:03:02.831Z,46.13
2024-02-29T02:03:35.281Z,44.70
2024-02-29T02:04:07.146Z,44.80
2024-02-29T02:04:38.976Z,46.77
2024-02-29T02:05:10.871Z,47.20
2024-02-29T02:05:42.769Z,46.77
2024-02-29T02:06:14.922Z,45.93
2024-02-29T02:06:46.896Z,44.67
2024-02-29T02:07:18.728Z,45.97
2024-02-29T02:07:50.850Z,46.80
2024-02-29T02:08:24.972Z,46.67
2024-02-29T02:08:57.738Z,46.03
2024-02-29T02:09:30.174Z,45.80
2024-02-29T02:10:02.991Z,45.67
2024-02-29T02:10:34.931Z,45.10
2024-02-29T02:11:06.787Z,45.17
2024-02-29T02:11:39.425Z,45.07
2024-02-29T02:12:14.021Z,45.03
2024-02-29T02:12:48.726Z,44.87
2024-02-29T02:13:20.654Z,44.83
2024-02-29T02:13:52.645Z,45.87
2024-02-29T02:14:24.509Z,44.90
2024-02-29T02:14:56.339Z,45.43
2024-02-29T02:15:28.158Z,44.93
2024-02-29T02:16:00.067Z,45.00
2024-02-29T02:16:32.421Z,47.13
2024-02-29T02:17:04.353Z,47.77
2024-02-29T02:17:36.203Z,47.83
2024-02-29T02:18:08.067Z,46.90
2024-02-29T02:18:40.068Z,45.03
2024-02-29T02:19:13.595Z,47.07
2024-02-29T02:19:45.580Z,47.00
2024-02-29T02:20:19.022Z,45.47
2024-02-29T02:20:51.099Z,44.83
2024-02-29T02:21:23.016Z,45.97
2024-02-29T02:21:54.929Z,45.07
2024-02-29T02:22:28.157Z,46.27
2024-02-29T02:22:59.936Z,44.70
2024-02-29T02:23:31.986Z,45.73
2024-02-29T02:24:03.811Z,45.43
2024-02-29T02:24:37.626Z,45.27
2024-02-29T02:25:09.637Z,44.57
2024-02-29T02:25:41.480Z,44.03
2024-02-29T02:26:13.240Z,45.03
2024-02-29T02:26:45.010Z,45.10
2024-02-29T02:27:16.886Z,45.57
2024-02-29T02:27:48.704Z,46.00
2024-02-29T02:28:20.482Z,46.83
2024-02-29T02:28:52.279Z,44.67
2024-02-29T02:29:24.053Z,44.40
2024-02-29T02:29:56.344Z,44.80
2024-02-29T02:30:28.125Z,44.20
2024-02-29T02:31:00.005Z,45.00
2024-02-29T02:31:31.797Z,45.07
2024-02-29T02:32:03.684Z,46.07
2024-02-29T02:32:36.754Z,45.40
2024-02-29T02:33:08.920Z,44.93
2024-02-29T02:33:40.835Z,45.50
2024-02-29T02:34:12.755Z,45.90
2024-02-29T02:34:44.613Z,46.83
2024-02-29T02:35:16.400Z,46.00
2024-02-29T02:35:48.816Z,45.07
2024-02-29T02:36:20.650Z,45.20
2024-02-29T02:36:52.518Z,46.43
2024-02-29T02:37:24.337Z,45.30
2024-02-29T02:37:56.174Z,43.87
2024-02-29T02:38:28.006Z,45.60
2024-02-29T02:38:59.808Z,45.47
2024-02-29T02:39:31.751Z,44.83
2024-02-29T02:40:07.558Z,45.83
2024-02-29T02:40:39.343Z,45.20
2024-02-29T02:41:12.627Z,46.70
2024-02-29T02:41:47.777Z,45.13
2024-02-29T02:42:19.589Z,46.60
2024-02-29T02:42:51.551Z,46.27
2024-02-29T02:43:23.338Z,46.63
2024-02-29T02:43:55.177Z,46.17
2024-02-29T02:44:26.959Z,46.77
2024-02-29T02:44:58.818Z,44.97
2024-02-29T02:45:30.707Z,47.40
2024-02-29T02:46:02.619Z,45.73
2024-02-29T02:46:34.462Z,46.20
2024-02-29T02:47:06.306Z,45.47
2024-02-29T02:47:38.132Z,45.50
2024-02-29T02:48:10.000Z,45.50
2024-02-29T02:48:41.819Z,46.27
2024-02-29T02:49:15.177Z,44.63
2024-02-29T02:49:47.045Z,44.83
2024-02-29T02:50:19.044Z,46.00
2024-02-29T02:50:53.020Z,45.10
2024-02-29T02:51:28.314Z,46.37
2024-02-29T02:52:00.177Z,45.30
2024-02-29T02:52:32.115Z,44.80
2024-02-29T02:53:05.368Z,45.63
2024-02-29T02:53:37.171Z,44.37
2024-02-29T02:54:08.989Z,45.33
2024-02-29T02:54:41.004Z,44.87
2024-02-29T02:55:13.367Z,45.33
2024-02-29T02:55:45.215Z,44.73
2024-02-29T02:56:16.998Z,45.13
2024-02-29T02:56:48.910Z,45.77
2024-02-29T02:57:20.784Z,46.13
2024-02-29T02:57:52.639Z,43.50
2024-02-29T02:58:24.420Z,43.33
2024-02-29T02:58:56.180Z,44.33
2024-02-29T02:59:29.774Z,45.43
2024-02-29T03:00:01.665Z,44.43
2024-02-29T03:00:33.750Z,44.33
2024-02-29T03:01:05.612Z,43.27
2024-02-29T03:01:38.152Z,44.60
2024-02-29T03:02:10.072Z,45.20
2024-02-29T03:02:41.985Z,45.63
2024-02-29T03:03:13.800Z,43.90
2024-02-29T03:03:45.819Z,43.73
2024-02-29T03:04:17.867Z,45.00
2024-02-29T03:04:49.792Z,43.83
2024-02-29T03:05:22.168Z,45.43
2024-02-29T03:05:53.979Z,46.10
2024-02-29T03:06:25.753Z,44.93
2024-02-29T03:06:57.625Z,45.43
2024-02-29T03:07:29.545Z,45.17
2024-02-29T03:08:02.592Z,44.77
2024-02-29T03:08:34.428Z,44.23
2024-02-29T03:09:08.940Z,45.93
2024-02-29T03:09:40.921Z,45.77
2024-02-29T03:10:13.097Z,45.00
2024-02-29T03:10:44.948Z,43.87
2024-02-29T03:11:16.770Z,45.17
2024-02-29T03:11:48.588Z,44.57
2024-02-29T03:12:20.459Z,43.80
2024-02-29T03:12:52.337Z,43.13
2024-02-29T03:13:24.179Z,43.00
2024-02-29T03:13:56.114Z,44.40
2024-02-29T03:14:28.259Z,44.57
2024-02-29T03:15:00.033Z,43.97
2024-02-29T03:15:31.893Z,43.67
2024-02-29T03:16:03.795Z,44.03
2024-02-29T03:16:36.411Z,42.47
2024-02-29T03:17:08.177Z,43.20
2024-02-29T03:17:40.069Z,43.53
2024-02-29T03:18:12.324Z,43.10
2024-02-29T03:18:44.438Z,44.80
2024-02-29T03:19:16.299Z,43.17
2024-02-29T03:19:48.148Z,43.50
2024-02-29T03:20:19.931Z,44.07
2024-02-29T03:20:51.736Z,44.20
2024-02-29T03:21:23.538Z,45.57
2024-02-29T03:21:55.397Z,43.77
2024-02-29T03:22:27.398Z,43.87
2024-02-29T03:22:59.169Z,44.60
2024-02-29T03:23:30.981Z,43.70
2024-02-29T03:24:02.779Z,44.80
2024-02-29T03:24:40.221Z,43.77
2024-02-29T03:25:12.405Z,44.40
2024-02-29T03:25:44.289Z,44.10
2024-02-29T03:26:16.366Z,44.30
2024-02-29T03:26:48.445Z,43.90
2024-02-29T03:27:20.223Z,45.07
2024-02-29T03:27:52.976Z,43.70
2024-02-29T03:28:24.815Z,43.00
2024-02-29T03:28:56.588Z,43.37
2024-02-29T03:29:29.936Z,44.23
2024-02-29T03:30:01.928Z,44.27
2024-02-29T03:30:34.023Z,44.60
2024-02-29T03:31:11.142Z,44.10
2024-02-29T03:31:46.663Z,44.23
2024-02-29T03:32:21.499Z,42.60
2024-02-29T03:32:54.968Z,44.50
2024-02-29T03:33:26.834Z,43.97
2024-02-29T03:33:59.009Z,44.00
2024-02-29T03:34:30.995Z,43.50
2024-02-29T03:35:05.286Z,43.40
2024-02-29T03:35:37.104Z,43.83
2024-02-29T03:36:09.850Z,43.23
2024-02-29T03:36:41.726Z,43.20
2024-02-29T03:37:14.877Z,43.30
2024-02-29T03:37:47.456Z,43.93
2024-02-29T03:38:19.471Z,43.87
2024-02-29T03:38:51.268Z,43.57
2024-02-29T03:39:23.039Z,44.37
2024-02-29T03:39:55.930Z,44.03
2024-02-29T03:40:27.851Z,42.50
2024-02-29T03:40:59.865Z,44.37
2024-02-29T03:41:32.393Z,44.00
2024-02-29T03:42:04.204Z,44.20
2024-02-29T03:42:36.033Z,45.90
2024-02-29T03:43:07.922Z,44.83
2024-02-29T03:43:39.773Z,43.77
2024-02-29T03:44:11.608Z,45.33
2024-02-29T03:44:45.077Z,45.40
2024-02-29T03:45:16.953Z,45.00
2024-02-29T03:45:48.767Z,45.50
2024-02-29T03:46:20.597Z,45.50
2024-02-29T03:46:52.569Z,43.47
2024-02-29T03:47:24.636Z,42.90
2024-02-29T03:47:56.683Z,43.97
2024-02-29T03:48:29.780Z,44.00
2024-02-29T03:49:01.748Z,46.27
2024-02-29T03:49:33.591Z,44.23
2024-02-29T03:50:06.144Z,43.77
2024-02-29T03:50:37.916Z,44.77
2024-02-29T03:51:09.799Z,45.63
2024-02-29T03:51:41.644Z,44.93
2024-02-29T03:52:13.540Z,45.30
2024-02-29T03:52:45.410Z,44.67
2024-02-29T03:53:17.200Z,44.33
2024-02-29T03:53:49.110Z,44.17
2024-02-29T03:54:20.926Z,44.03
2024-02-29T03:54:52.834Z,45.63
2024-02-29T03:55:24.776Z,45.13
2024-02-29T03:55:56.590Z,43.83
2024-02-29T03:56:28.381Z,45.00
2024-02-29T03:57:00.215Z,45.07
2024-02-29T03:57:32.035Z,46.30
2024-02-29T03:58:04.370Z,45.37
2024-02-29T03:58:36.185Z,44.47
2024-02-29T03:59:08.005Z,44.00
2024-02-29T03:59:39.813Z,45.07
2024-02-29T04:00:14.765Z,45.30
2024-02-29T04:00:46.908Z,44.93
2024-02-29T04:01:19.304Z,44.67
2024-02-29T04:01:51.944Z,43.30
2024-02-29T04:02:23.918Z,44.83
2024-02-29T04:02:55.780Z,46.53
2024-02-29T04:03:27.551Z,45.60
2024-02-29T04:03:59.412Z,45.63
2024-02-29T04:04:31.244Z,45.93
2024-02-29T04:05:03.072Z,45.80
2024-02-29T04:05:34.881Z,45.93
2024-02-29T04:06:09.664Z,47.03
2024-02-29T04:06:41.527Z,45.77
2024-02-29T04:07:13.463Z,46.83
2024-02-29T04:07:45.378Z,46.97
2024-02-29T04:08:17.220Z,46.30
2024-02-29T04:08:49.040Z,47.13
2024-02-29T04:09:20.957Z,45.73
2024-02-29T04:09:55.986Z,46.60
2024-02-29T04:10:31.453Z,47.57
2024-02-29T04:11:03.624Z,46.53
2024-02-29T04:11:35.478Z,45.00
2024-02-29T04:12:07.595Z,45.17
2024-02-29T04:12:39.434Z,45.20
2024-02-29T04:13:11.254Z,45.83
2024-02-29T04:13:43.092Z,45.30
2024-02-29T04:14:14.900Z,46.67
2024-02-29T04:14:46.725Z,48.23
2024-02-29T04:15:18.574Z,48.07
2024-02-29T04:15:50.547Z,45.63
2024-02-29T04:16:23.316Z,46.73
2024-02-29T04:16:55.344Z,46.90
2024-02-29T04:17:27.174Z,45.67
2024-02-29T04:18:00.095Z,46.30
2024-02-29T04:18:32.093Z,46.87
2024-02-29T04:19:04.993Z,46.93
2024-02-29T04:19:39.163Z,46.83
2024-02-29T04:20:11.418Z,45.50
2024-02-29T04:20:43.429Z,43.83
2024-02-29T04:21:15.213Z,44.23
2024-02-29T04:21:47.698Z,45.47
2024-02-29T04:22:19.755Z,44.33
2024-02-29T04:22:51.606Z,43.53
2024-02-29T04:23:23.388Z,45.27
2024-02-29T04:23:55.226Z,45.63
2024-02-29T04:24:27.387Z,45.27
2024-02-29T04:24:59.276Z,45.50
2024-02-29T04:25:31.124Z,45.57
2024-02-29T04:26:03.477Z,44.50
2024-02-29T04:26:35.252Z,45.57
2024-02-29T04:27:07.187Z,45.20
2024-02-29T04:27:39.386Z,45.03
2024-02-29T04:28:11.210Z,44.97
2024-02-29T04:28:43.066Z,47.50
2024-02-29T04:29:14.850Z,45.13
2024-02-29T04:29:49.530Z,45.73
2024-02-29T04:30:21.319Z,45.73
2024-02-29T04:30:53.206Z,47.33
2024-02-29T04:31:25.089Z,45.63
2024-02-29T04:31:56.903Z,45.27
2024-02-29T04:32:28.673Z,44.90
2024-02-29T04:33:01.507Z,46.53
2024-02-29T04:33:33.636Z,46.67
2024-02-29T04:34:05.472Z,46.23
2024-02-29T04:34:37.255Z,46.10
2024-02-29T04:35:10.555Z,45.23
2024-02-29T04:35:42.388Z,45.10
2024-02-29T04:36:14.168Z,46.33
2024-02-29T04:36:45.985Z,46.33
2024-02-29T04:37:17.991Z,45.73
2024-02-29T04:37:49.803Z,44.50
2024-02-29T04:38:21.568Z,45.20
2024-02-29T04:38:53.357Z,45.87
2024-02-29T04:39:25.234Z,45.33
2024-02-29T04:39:57.076Z,43.97
2024-02-29T04:40:30.484Z,44.40
2024-02-29T04:41:02.402Z,44.17
2024-02-29T04:41:34.227Z,45.37
2024-02-29T04:42:06.064Z,45.73
2024-02-29T04:42:38.209Z,45.33
2024-02-29T04:43:10.542Z,45.20
2024-02-29T04:43:42.361Z,45.50
2024-02-29T04:44:14.258Z,44.77
2024-02-29T04:44:46.097Z,45.97
2024-02-29T04:45:17.893Z,44.10
2024-02-29T04:45:49.807Z,45.80
2024-02-29T04:46:21.640Z,45.73
2024-02-29T04:46:53.463Z,44.87
2024-02-29T04:47:26.102Z,44.30
2024-02-29T04:47:58.595Z,43.83
2024-02-29T04:48:30.433Z,44.67
2024-02-29T04:49:02.276Z,42.53
2024-02-29T04:49:34.829Z,44.10
2024-02-29T04:50:06.837Z,45.40
2024-02-29T04:50:38.634Z,44.53
2024-02-29T04:51:10.736Z,45.87
2024-02-29T04:51:42.624Z,43.77
2024-02-29T04:52:14.776Z,44.20
2024-02-29T04:52:46.794Z,45.03
2024-02-29T04:53:18.842Z,44.57
2024-02-29T04:53:50.634Z,44.47
2024-02-29T04:54:22.416Z,43.93
2024-02-29T04:54:54.347Z,43.60
2024-02-29T04:55:26.130Z,43.93
2024-02-29T04:55:58.268Z,43.87
2024-02-29T04:56:30.069Z,44.10
2024-02-29T04:57:01.961Z,44.90
2024-02-29T04:57:33.817Z,43.33
2024-02-29T04:58:05.734Z,45.00
2024-02-29T04:58:37.641Z,43.53
2024-02-29T04:59:10.367Z,44.73
2024-02-29T04:59:42.259Z,44.97
2024-02-29T05:00:14.382Z,44.47
2024-02-29T05:00:46.326Z,44.20
2024-02-29T05:01:18.447Z,43.73
2024-02-29T05:01:51.485Z,44.63
2024-02-29T05:02:24.131Z,44.83
2024-02-29T05:02:56.281Z,44.33
2024-02-29T05:03:28.094Z,44.13
2024-02-29T05:03:59.944Z,43.57
2024-02-29T05:04:32.197Z,43.47
2024-02-29T05:05:05.124Z,44.07
2024-02-29T05:05:36.911Z,42.57
2024-02-29T05:06:14.870Z,42.37
2024-02-29T05:06:46.794Z,42.27
2024-02-29T05:07:18.760Z,42.33
2024-02-29T05:07:50.592Z,43.63
2024-02-29T05:08:23.194Z,43.13
2024-02-29T05:08:55.084Z,42.53
2024-02-29T05:09:27.069Z,43.50
2024-02-29T05:09:58.925Z,42.80
2024-02-29T05:10:30.829Z,42.33
2024-02-29T05:11:02.636Z,43.10
2024-02-29T05:11:36.696Z,45.07
2024-02-29T05:12:09.785Z,43.37
2024-02-29T05:12:41.608Z,41.80
2024-02-29T05:13:13.459Z,42.30
2024-02-29T05:13:45.326Z,41.40
2024-02-29T05:14:17.134Z,41.93
2024-02-29T05:14:48.947Z,42.90
2024-02-29T05:15:21.990Z,42.90
2024-02-29T05:15:53.880Z,43.67
2024-02-29T05:16:25.740Z,43.53
2024-02-29T05:16:57.555Z,42.53
2024-02-29T05:17:29.666Z,42.23
2024-02-29T05:18:01.684Z,42.63
2024-02-29T05:18:33.701Z,42.53
2024-02-29T05:19:05.586Z,42.80
2024-02-29T05:19:38.997Z,42.43
2024-02-29T05:20:11.545Z,42.97
2024-02-29T05:20:43.322Z,43.53
2024-02-29T05:21:15.220Z,42.80
2024-02-29T05:21:48.246Z,42.57
2024-02-29T05:22:21.061Z,42.83
2024-02-29T05:22:55.007Z,43.00
2024-02-29T05:23:26.892Z,42.40
2024-02-29T05:23:58.804Z,42.50
2024-02-29T05:24:31.101Z,43.70
2024-02-29T05:25:03.076Z,42.43
2024-02-29T05:25:36.721Z,42.07
2024-02-29T05:26:09.173Z,42.03
2024-02-29T05:26:41.052Z,42.60
2024-02-29T05:27:12.836Z,43.37
2024-02-29T05:27:44.725Z,42.03
2024-02-29T05:28:19.260Z,41.40
2024-02-29T05:28:51.188Z,43.20
2024-02-29T05:29:23.018Z,43.10
2024-02-29T05:29:54.789Z,43.10
2024-02-29T05:30:26.958Z,43.07
2024-02-29T05:30:59.347Z,44.87
2024-02-29T05:31:31.795Z,42.93
2024-02-29T05:32:03.636Z,42.90
2024-02-29T05:32:35.562Z,43.57
2024-02-29T05:33:07.493Z,42.63
2024-02-29T05:33:41.964Z,43.23
2024-02-29T05:34:15.302Z,44.33
2024-02-29T05:34:47.654Z,44.77
2024-02-29T05:35:19.455Z,43.27
2024-02-29T05:35:52.535Z,42.90
2024-02-29T05:36:24.377Z,43.20
2024-02-29T05:36:56.179Z,43.23
2024-02-29T05:37:28.338Z,44.13
2024-02-29T05:38:00.386Z,42.87
2024-02-29T05:38:32.346Z,43.13
2024-02-29T05:39:04.192Z,43.60
2024-02-29T05:39:36.218Z,42.63
2024-02-29T05:40:08.721Z,41.87
2024-02-29T05:40:40.732Z,42.03
2024-02-29T05:41:12.568Z,43.37
2024-02-29T05:41:44.523Z,43.00
2024-02-29T05:42:16.319Z,43.47
2024-02-29T05:42:48.136Z,42.80
2024-02-29T05:43:20.048Z,42.87
2024-02-29T05:43:51.905Z,43.23
2024-02-29T05:44:23.720Z,44.07
2024-02-29T05:44:55.531Z,43.77
2024-02-29T05:45:27.353Z,43.67
2024-02-29T05:45:59.285Z,43.37
2024-02-29T05:46:31.141Z,42.27
2024-02-29T05:47:03.343Z,41.80
2024-02-29T05:47:35.432Z,42.47
2024-02-29T05:48:07.660Z,42.70
2024-02-29T05:48:40.497Z,42.13
2024-02-29T05:49:12.515Z,42.37
2024-02-29T05:49:44.395Z,43.10
2024-02-29T05:50:16.201Z,42.37
2024-02-29T05:50:48.049Z,42.77
2024-02-29T05:51:20.070Z,42.93
2024-02-29T05:51:51.886Z,41.40
2024-02-29T05:52:23.788Z,42.43
2024-02-29T05:52:55.621Z,42.30
2024-02-29T05:53:27.644Z,42.67
2024-02-29T05:53:59.479Z,43.37
2024-02-29T05:54:31.404Z,42.20
2024-02-29T05:55:09.477Z,41.07
2024-02-29T05:55:41.676Z,42.50
2024-02-29T05:56:14.847Z,42.10
2024-02-29T05:56:46.783Z,42.00
2024-02-29T05:57:18.568Z,41.73
2024-02-29T05:57:50.344Z,42.57
2024-02-29T05:58:22.286Z,41.93
2024-02-29T05:58:54.143Z,41.13
2024-02-29T05:59:26.270Z,41.50
2024-02-29T05:59:58.213Z,42.67
2024-02-29T06:00:30.500Z,41.70
2024-02-29T06:01:03.184Z,41.13
2024-02-29T06:01:35.270Z,41.53
2024-02-29T06:02:07.274Z,42.97
2024-02-29T06:02:39.735Z,41.97
2024-02-29T06:03:11.589Z,41.33
2024-02-29T06:03:43.516Z,41.47
2024-02-29T06:04:15.364Z,41.57
2024-02-29T06:04:47.183Z,41.70
2024-02-29T06:05:20.081Z,42.17
2024-02-29T06:05:51.867Z,40.80
2024-02-29T06:06:23.646Z,42.53
2024-02-29T06:06:55.459Z,42.77
2024-02-29T06:07:27.764Z,42.10
2024-02-29T06:07:59.548Z,41.83
2024-02-29T06:08:31.628Z,42.17
2024-02-29T06:09:04.632Z,41.50
2024-02-29T06:09:36.544Z,42.13
2024-02-29T06:10:11.668Z,41.80
2024-02-29T06:10:44.017Z,43.50
2024-02-29T06:11:16.003Z,42.50
2024-02-29T06:11:49.045Z,42.33
2024-02-29T06:12:20.904Z,41.83
2024-02-29T06:12:52.779Z,42.87
2024-02-29T06:13:24.610Z,44.30
2024-02-29T06:13:57.517Z,42.37
2024-02-29T06:14:29.441Z,43.20
2024-02-29T06:15:01.337Z,33.17
2024-02-29T06:15:33.471Z,30.97
2024-02-29T06:16:05.480Z,34.70
2024-02-29T06:16:37.251Z,38.53
2024-02-29T06:17:09.524Z,40.10
2024-02-29T06:17:41.477Z,42.90
2024-02-29T06:18:14.628Z,42.93
2024-02-29T06:18:47.924Z,42.73
2024-02-29T06:19:19.899Z,42.13
2024-02-29T06:19:51.733Z,41.83
2024-02-29T06:20:23.866Z,40.63
2024-02-29T06:20:55.650Z,41.27
2024-02-29T06:21:27.476Z,42.63
2024-02-29T06:21:59.332Z,42.17
2024-02-29T06:22:31.124Z,41.43
2024-02-29T06:23:02.960Z,41.30
2024-02-29T06:23:34.780Z,41.27
2024-02-29T06:24:06.658Z,41.77
2024-02-29T06:24:38.527Z,43.67
2024-02-29T06:25:11.618Z,42.73
2024-02-29T06:25:44.373Z,42.23
2024-02-29T06:26:16.353Z,41.13
2024-02-29T06:26:48.518Z,40.80
2024-02-29T06:27:23.845Z,41.50
2024-02-29T06:27:55.759Z,42.37
2024-02-29T06:28:28.301Z,42.73
2024-02-29T06:29:00.271Z,41.27
2024-02-29T06:29:32.097Z,40.50
2024-02-29T06:30:05.389Z,41.07
2024-02-29T06:30:37.268Z,39.63
2024-02-29T06:31:10.082Z,41.73
2024-02-29T06:31:45.594Z,41.27
2024-02-29T06:32:17.357Z,40.90
2024-02-29T06:32:49.171Z,40.73
2024-02-29T06:33:20.986Z,40.23
2024-02-29T06:33:52.836Z,38.33
2024-02-29T06:34:24.891Z,40.20
2024-02-29T06:34:56.826Z,41.03
2024-02-29T06:35:29.641Z,40.17
2024-02-29T06:36:07.468Z,39.03
2024-02-29T06:36:41.280Z,40.90
2024-02-29T06:37:13.268Z,41.83
2024-02-29T06:37:45.291Z,41.90
2024-02-29T06:38:18.090Z,40.07
2024-02-29T06:38:50.162Z,39.83
2024-02-29T06:39:21.924Z,40.70
2024-02-29T06:39:58.272Z,40.40
2024-02-29T06:40:30.101Z,41.50
2024-02-29T06:41:01.966Z,41.57
2024-02-29T06:41:33.876Z,41.23
2024-02-29T06:42:06.181Z,41.87
2024-02-29T06:42:38.773Z,42.07
2024-02-29T06:43:10.632Z,41.83
2024-02-29T06:43:42.493Z,41.93
2024-02-29T06:44:15.050Z,40.87
2024-02-29T06:44:46.888Z,40.67
2024-02-29T06:45:18.678Z,41.10
2024-02-29T06:45:51.549Z,43.30
2024-02-29T06:46:23.416Z,45.40
2024-02-29T06:46:55.259Z,44.63
2024-02-29T06:47:27.194Z,45.40
2024-02-29T06:47:59.372Z,45.20
2024-02-29T06:48:31.216Z,45.23
2024-02-29T06:49:03.966Z,44.77
2024-02-29T06:49:35.802Z,44.27
2024-02-29T06:50:08.292Z,44.33
2024-02-29T06:50:40.074Z,44.87
2024-02-29T06:51:11.869Z,46.47
2024-02-29T06:51:43.775Z,46.70
2024-02-29T06:52:16.076Z,45.47
2024-02-29T06:52:48.559Z,45.40
2024-02-29T06:53:21.059Z,45.80
2024-02-29T06:53:52.843Z,43.53
2024-02-29T06:54:25.030Z,43.33
2024-02-29T06:54:56.901Z,42.47
2024-02-29T06:55:28.922Z,44.27
2024-02-29T06:56:00.838Z,45.77